sensor_id;sensor_type;location;lat;lon;timestamp;temperature;humidity
12901;DHT22;6518;50.930;5.344;2023-05-07T00:00:31;16.90;99.90
12901;DHT22;6518;50.930;5.344;2023-05-07T00:02:59;16.90;99.90
12901;DHT22;6518;50.930;5.344;2023-05-07T00:05:26;16.90;99.90
12901;DHT22;6518;50.930;5.344;2023-05-07T00:07:55;16.90;99.90
12901;DHT22;6518;50.930;5.344;2023-05-07T00:10:22;16.90;99.90
12901;DHT22;6518;50.930;5.344;2023-05-07T00:12:48;16.90;99.90
12901;DHT22;6518;50.930;5.344;2023-05-07T00:15:15;16.70;99.90
12901;DHT22;6518;50.930;5.344;2023-05-07T00:17:42;16.60;99.90
12901;DHT22;6518;50.930;5.344;2023-05-07T00:20:10;16.50;99.90
12901;DHT22;6518;50.930;5.344;2023-05-07T00:22:37;16.60;99.90
12901;DHT22;6518;50.930;5.344;2023-05-07T00:25:06;16.50;99.90
12901;DHT22;6518;50.930;5.344;2023-05-07T00:27:33;16.50;99.90
12901;DHT22;6518;50.930;5.344;2023-05-07T00:30:00;16.50;99.90
12901;DHT22;6518;50.930;5.344;2023-05-07T00:32:27;16.50;99.90
12901;DHT22;6518;50.930;5.344;2023-05-07T00:34:53;16.50;99.90
12901;DHT22;6518;50.930;5.344;2023-05-07T00:37:21;16.50;99.90
12901;DHT22;6518;50.930;5.344;2023-05-07T00:39:48;16.50;99.90
12901;DHT22;6518;50.930;5.344;2023-05-07T00:42:16;16.50;99.90
12901;DHT22;6518;50.930;5.344;2023-05-07T00:44:43;16.40;99.90
12901;DHT22;6518;50.930;5.344;2023-05-07T00:47:11;16.30;99.90
12901;DHT22;6518;50.930;5.344;2023-05-07T00:49:39;16.20;99.90
12901;DHT22;6518;50.930;5.344;2023-05-07T00:52:07;16.20;99.90
12901;DHT22;6518;50.930;5.344;2023-05-07T00:54:36;16.20;99.90
12901;DHT22;6518;50.930;5.344;2023-05-07T00:57:03;16.30;99.90
12901;DHT22;6518;50.930;5.344;2023-05-07T00:59:32;16.30;99.90
12901;DHT22;6518;50.930;5.344;2023-05-07T01:02:00;16.30;99.90
12901;DHT22;6518;50.930;5.344;2023-05-07T01:04:27;16.20;99.90
12901;DHT22;6518;50.930;5.344;2023-05-07T01:06:55;16.20;99.90
12901;DHT22;6518;50.930;5.344;2023-05-07T01:09:23;16.30;99.90
12901;DHT22;6518;50.930;5.344;2023-05-07T01:11:50;16.30;99.90
12901;DHT22;6518;50.930;5.344;2023-05-07T01:14:19;16.30;99.90
12901;DHT22;6518;50.930;5.344;2023-05-07T01:16:48;16.20;99.90
12901;DHT22;6518;50.930;5.344;2023-05-07T01:19:18;16.00;99.90
12901;DHT22;6518;50.930;5.344;2023-05-07T01:21:47;15.90;99.90
12901;DHT22;6518;50.930;5.344;2023-05-07T01:24:16;15.90;99.90
12901;DHT22;6518;50.930;5.344;2023-05-07T01:26:43;15.80;99.90
12901;DHT22;6518;50.930;5.344;2023-05-07T01:29:10;15.80;99.90
12901;DHT22;6518;50.930;5.344;2023-05-07T01:31:38;15.80;99.90
12901;DHT22;6518;50.930;5.344;2023-05-07T01:34:07;15.90;99.90
12901;DHT22;6518;50.930;5.344;2023-05-07T01:36:37;16.00;99.90
12901;DHT22;6518;50.930;5.344;2023-05-07T01:39:06;15.90;99.90
12901;DHT22;6518;50.930;5.344;2023-05-07T01:41:34;16.00;99.90
12901;DHT22;6518;50.930;5.344;2023-05-07T01:44:03;16.00;99.90
12901;DHT22;6518;50.930;5.344;2023-05-07T01:46:31;15.90;99.90
12901;DHT22;6518;50.930;5.344;2023-05-07T01:48:58;15.80;99.90
12901;DHT22;6518;50.930;5.344;2023-05-07T01:51:25;15.80;99.90
12901;DHT22;6518;50.930;5.344;2023-05-07T01:53:53;15.90;99.90
12901;DHT22;6518;50.930;5.344;2023-05-07T01:56:20;15.90;99.90
12901;DHT22;6518;50.930;5.344;2023-05-07T01:58:48;16.00;99.90
12901;DHT22;6518;50.930;5.344;2023-05-07T02:01:16;15.90;99.90
12901;DHT22;6518;50.930;5.344;2023-05-07T02:03:44;15.90;99.90
12901;DHT22;6518;50.930;5.344;2023-05-07T02:06:11;15.80;99.90
12901;DHT22;6518;50.930;5.344;2023-05-07T02:08:37;15.80;99.90
12901;DHT22;6518;50.930;5.344;2023-05-07T02:11:04;15.80;99.90
12901;DHT22;6518;50.930;5.344;2023-05-07T02:13:33;15.80;99.90
12901;DHT22;6518;50.930;5.344;2023-05-07T02:16:01;15.80;99.90
12901;DHT22;6518;50.930;5.344;2023-05-07T02:18:28;15.80;99.90
12901;DHT22;6518;50.930;5.344;2023-05-07T02:20:55;15.80;99.90
12901;DHT22;6518;50.930;5.344;2023-05-07T02:23:22;15.80;99.90
12901;DHT22;6518;50.930;5.344;2023-05-07T02:25:49;15.90;99.90
12901;DHT22;6518;50.930;5.344;2023-05-07T02:28:16;15.90;99.90
12901;DHT22;6518;50.930;5.344;2023-05-07T02:30:43;15.90;99.90
12901;DHT22;6518;50.930;5.344;2023-05-07T02:33:11;15.90;99.90
12901;DHT22;6518;50.930;5.344;2023-05-07T02:35:39;15.90;99.90
12901;DHT22;6518;50.930;5.344;2023-05-07T02:38:06;16.00;99.90
12901;DHT22;6518;50.930;5.344;2023-05-07T02:40:36;16.00;99.90
12901;DHT22;6518;50.930;5.344;2023-05-07T02:43:04;16.00;99.90
12901;DHT22;6518;50.930;5.344;2023-05-07T02:45:32;15.90;99.90
12901;DHT22;6518;50.930;5.344;2023-05-07T02:47:59;15.90;99.90
12901;DHT22;6518;50.930;5.344;2023-05-07T02:50:27;15.90;99.90
12901;DHT22;6518;50.930;5.344;2023-05-07T02:52:54;15.90;99.90
12901;DHT22;6518;50.930;5.344;2023-05-07T02:55:21;15.90;99.90
12901;DHT22;6518;50.930;5.344;2023-05-07T02:57:48;15.90;99.90
12901;DHT22;6518;50.930;5.344;2023-05-07T03:00:16;15.90;99.90
12901;DHT22;6518;50.930;5.344;2023-05-07T03:02:43;15.90;99.90
12901;DHT22;6518;50.930;5.344;2023-05-07T03:05:10;15.90;99.90
12901;DHT22;6518;50.930;5.344;2023-05-07T03:07:40;15.80;99.90
12901;DHT22;6518;50.930;5.344;2023-05-07T03:10:10;15.80;99.90
12901;DHT22;6518;50.930;5.344;2023-05-07T03:12:38;15.70;99.90
12901;DHT22;6518;50.930;5.344;2023-05-07T03:15:05;15.60;99.90
12901;DHT22;6518;50.930;5.344;2023-05-07T03:17:33;15.60;99.90
12901;DHT22;6518;50.930;5.344;2023-05-07T03:20:00;15.60;99.90
12901;DHT22;6518;50.930;5.344;2023-05-07T03:22:27;15.60;99.90
12901;DHT22;6518;50.930;5.344;2023-05-07T03:24:55;15.70;99.90
12901;DHT22;6518;50.930;5.344;2023-05-07T03:27:22;15.70;99.90
12901;DHT22;6518;50.930;5.344;2023-05-07T03:29:49;15.60;99.90
12901;DHT22;6518;50.930;5.344;2023-05-07T03:32:16;15.60;99.90
12901;DHT22;6518;50.930;5.344;2023-05-07T03:34:43;15.50;99.90
12901;DHT22;6518;50.930;5.344;2023-05-07T03:37:10;15.50;99.90
12901;DHT22;6518;50.930;5.344;2023-05-07T03:39:37;15.50;99.90
12901;DHT22;6518;50.930;5.344;2023-05-07T03:42:05;15.50;99.90
12901;DHT22;6518;50.930;5.344;2023-05-07T03:44:32;15.60;99.90
12901;DHT22;6518;50.930;5.344;2023-05-07T03:46:59;15.60;99.90
12901;DHT22;6518;50.930;5.344;2023-05-07T03:49:26;15.60;99.90
12901;DHT22;6518;50.930;5.344;2023-05-07T03:51:53;15.70;99.90
12901;DHT22;6518;50.930;5.344;2023-05-07T03:54:20;15.70;99.90
12901;DHT22;6518;50.930;5.344;2023-05-07T03:56:47;15.70;99.90
12901;DHT22;6518;50.930;5.344;2023-05-07T03:59:15;15.80;99.90
12901;DHT22;6518;50.930;5.344;2023-05-07T04:01:42;15.80;99.90
12901;DHT22;6518;50.930;5.344;2023-05-07T04:04:09;15.70;99.90
12901;DHT22;6518;50.930;5.344;2023-05-07T04:06:35;15.80;99.90
12901;DHT22;6518;50.930;5.344;2023-05-07T04:09:02;15.80;99.90
12901;DHT22;6518;50.930;5.344;2023-05-07T04:11:31;15.70;99.90
12901;DHT22;6518;50.930;5.344;2023-05-07T04:13:57;15.80;99.90
12901;DHT22;6518;50.930;5.344;2023-05-07T04:16:26;15.80;99.90
12901;DHT22;6518;50.930;5.344;2023-05-07T04:18:53;15.80;99.90
12901;DHT22;6518;50.930;5.344;2023-05-07T04:21:20;15.80;99.90
12901;DHT22;6518;50.930;5.344;2023-05-07T04:23:48;15.80;99.90
12901;DHT22;6518;50.930;5.344;2023-05-07T04:26:15;15.80;99.90
12901;DHT22;6518;50.930;5.344;2023-05-07T04:28:42;15.80;99.90
12901;DHT22;6518;50.930;5.344;2023-05-07T04:31:09;15.80;99.90
12901;DHT22;6518;50.930;5.344;2023-05-07T04:33:37;15.80;99.90
12901;DHT22;6518;50.930;5.344;2023-05-07T04:36:05;15.80;99.90
12901;DHT22;6518;50.930;5.344;2023-05-07T04:38:32;15.80;99.90
12901;DHT22;6518;50.930;5.344;2023-05-07T04:41:03;15.70;99.90
12901;DHT22;6518;50.930;5.344;2023-05-07T04:43:30;15.70;99.90
12901;DHT22;6518;50.930;5.344;2023-05-07T04:45:57;15.70;99.90
12901;DHT22;6518;50.930;5.344;2023-05-07T04:48:24;15.70;99.90
12901;DHT22;6518;50.930;5.344;2023-05-07T04:50:53;15.70;99.90
12901;DHT22;6518;50.930;5.344;2023-05-07T04:53:20;15.70;99.90
12901;DHT22;6518;50.930;5.344;2023-05-07T04:55:47;15.70;99.90
12901;DHT22;6518;50.930;5.344;2023-05-07T04:58:14;15.70;99.90
12901;DHT22;6518;50.930;5.344;2023-05-07T05:00:41;15.80;99.90
12901;DHT22;6518;50.930;5.344;2023-05-07T05:03:09;15.80;99.90
12901;DHT22;6518;50.930;5.344;2023-05-07T05:05:36;15.80;99.90
12901;DHT22;6518;50.930;5.344;2023-05-07T05:08:05;15.80;99.90
12901;DHT22;6518;50.930;5.344;2023-05-07T05:10:31;15.90;99.90
12901;DHT22;6518;50.930;5.344;2023-05-07T05:12:58;15.90;99.90
12901;DHT22;6518;50.930;5.344;2023-05-07T05:15:25;16.00;99.90
12901;DHT22;6518;50.930;5.344;2023-05-07T05:17:52;16.00;99.90
12901;DHT22;6518;50.930;5.344;2023-05-07T05:20:19;16.00;99.90
12901;DHT22;6518;50.930;5.344;2023-05-07T05:22:46;16.10;99.90
12901;DHT22;6518;50.930;5.344;2023-05-07T05:25:14;16.10;99.90
12901;DHT22;6518;50.930;5.344;2023-05-07T05:27:41;16.20;99.90
12901;DHT22;6518;50.930;5.344;2023-05-07T05:30:09;16.20;99.90
12901;DHT22;6518;50.930;5.344;2023-05-07T05:32:36;16.20;99.90
12901;DHT22;6518;50.930;5.344;2023-05-07T05:35:03;16.30;99.90
12901;DHT22;6518;50.930;5.344;2023-05-07T05:37:31;16.30;99.90
12901;DHT22;6518;50.930;5.344;2023-05-07T05:39:58;16.40;99.90
12901;DHT22;6518;50.930;5.344;2023-05-07T05:42:26;16.40;99.90
12901;DHT22;6518;50.930;5.344;2023-05-07T05:44:53;16.40;99.90
12901;DHT22;6518;50.930;5.344;2023-05-07T05:47:20;16.50;99.90
12901;DHT22;6518;50.930;5.344;2023-05-07T05:49:46;16.50;99.90
12901;DHT22;6518;50.930;5.344;2023-05-07T05:52:13;16.60;99.90
12901;DHT22;6518;50.930;5.344;2023-05-07T05:54:42;16.60;99.90
12901;DHT22;6518;50.930;5.344;2023-05-07T05:57:09;16.70;99.90
12901;DHT22;6518;50.930;5.344;2023-05-07T05:59:37;16.70;99.90
12901;DHT22;6518;50.930;5.344;2023-05-07T06:02:04;16.80;99.90
12901;DHT22;6518;50.930;5.344;2023-05-07T06:04:31;16.80;99.90
12901;DHT22;6518;50.930;5.344;2023-05-07T06:06:58;16.90;99.90
12901;DHT22;6518;50.930;5.344;2023-05-07T06:09:25;16.80;99.90
12901;DHT22;6518;50.930;5.344;2023-05-07T06:11:51;16.90;99.90
12901;DHT22;6518;50.930;5.344;2023-05-07T06:14:18;16.90;99.90
12901;DHT22;6518;50.930;5.344;2023-05-07T06:16:47;17.00;99.90
12901;DHT22;6518;50.930;5.344;2023-05-07T06:19:14;17.00;99.90
12901;DHT22;6518;50.930;5.344;2023-05-07T06:21:43;17.10;99.90
12901;DHT22;6518;50.930;5.344;2023-05-07T06:24:10;17.10;99.90
12901;DHT22;6518;50.930;5.344;2023-05-07T06:26:37;17.10;99.90
12901;DHT22;6518;50.930;5.344;2023-05-07T06:29:04;17.20;99.90
12901;DHT22;6518;50.930;5.344;2023-05-07T06:31:31;17.20;99.90
12901;DHT22;6518;50.930;5.344;2023-05-07T06:33:59;17.30;99.90
12901;DHT22;6518;50.930;5.344;2023-05-07T06:36:27;17.30;99.90
12901;DHT22;6518;50.930;5.344;2023-05-07T06:38:55;17.40;99.90
12901;DHT22;6518;50.930;5.344;2023-05-07T06:41:22;17.50;99.90
12901;DHT22;6518;50.930;5.344;2023-05-07T06:43:49;17.50;99.90
12901;DHT22;6518;50.930;5.344;2023-05-07T06:46:16;17.60;99.90
12901;DHT22;6518;50.930;5.344;2023-05-07T06:48:42;17.80;99.90
12901;DHT22;6518;50.930;5.344;2023-05-07T06:51:11;17.70;99.90
12901;DHT22;6518;50.930;5.344;2023-05-07T06:53:38;17.70;99.90
12901;DHT22;6518;50.930;5.344;2023-05-07T06:56:05;17.70;99.90
12901;DHT22;6518;50.930;5.344;2023-05-07T06:58:32;17.70;99.90
12901;DHT22;6518;50.930;5.344;2023-05-07T07:00:59;17.70;99.90
12901;DHT22;6518;50.930;5.344;2023-05-07T07:03:26;17.80;99.90
12901;DHT22;6518;50.930;5.344;2023-05-07T07:05:53;17.80;99.90
12901;DHT22;6518;50.930;5.344;2023-05-07T07:08:22;17.90;99.90
12901;DHT22;6518;50.930;5.344;2023-05-07T07:10:49;17.90;99.90
12901;DHT22;6518;50.930;5.344;2023-05-07T07:13:15;18.00;99.90
12901;DHT22;6518;50.930;5.344;2023-05-07T07:15:43;18.10;99.90
12901;DHT22;6518;50.930;5.344;2023-05-07T07:18:10;18.20;99.90
12901;DHT22;6518;50.930;5.344;2023-05-07T07:20:37;18.20;99.90
12901;DHT22;6518;50.930;5.344;2023-05-07T07:23:04;18.30;99.90
12901;DHT22;6518;50.930;5.344;2023-05-07T07:25:32;18.30;99.90
12901;DHT22;6518;50.930;5.344;2023-05-07T07:27:59;18.30;99.90
12901;DHT22;6518;50.930;5.344;2023-05-07T07:30:26;18.30;99.90
12901;DHT22;6518;50.930;5.344;2023-05-07T07:32:53;18.40;99.90
12901;DHT22;6518;50.930;5.344;2023-05-07T07:35:20;18.40;99.90
12901;DHT22;6518;50.930;5.344;2023-05-07T07:37:48;18.40;99.90
12901;DHT22;6518;50.930;5.344;2023-05-07T07:40:16;18.40;99.90
12901;DHT22;6518;50.930;5.344;2023-05-07T07:42:44;18.40;99.90
12901;DHT22;6518;50.930;5.344;2023-05-07T07:45:11;18.40;99.90
12901;DHT22;6518;50.930;5.344;2023-05-07T07:47:38;18.50;99.90
12901;DHT22;6518;50.930;5.344;2023-05-07T07:50:06;18.50;99.90
12901;DHT22;6518;50.930;5.344;2023-05-07T07:52:33;18.50;99.90
12901;DHT22;6518;50.930;5.344;2023-05-07T07:55:00;18.60;99.90
12901;DHT22;6518;50.930;5.344;2023-05-07T07:57:27;18.70;99.90
12901;DHT22;6518;50.930;5.344;2023-05-07T07:59:56;18.80;99.90
12901;DHT22;6518;50.930;5.344;2023-05-07T08:02:23;18.80;99.90
12901;DHT22;6518;50.930;5.344;2023-05-07T08:04:50;18.80;99.90
12901;DHT22;6518;50.930;5.344;2023-05-07T08:07:16;18.90;99.90
12901;DHT22;6518;50.930;5.344;2023-05-07T08:09:46;19.00;99.10
12901;DHT22;6518;50.930;5.344;2023-05-07T08:12:13;19.10;98.90
12901;DHT22;6518;50.930;5.344;2023-05-07T08:14:41;19.20;98.70
12901;DHT22;6518;50.930;5.344;2023-05-07T08:17:09;19.20;98.40
12901;DHT22;6518;50.930;5.344;2023-05-07T08:19:36;19.30;96.80
12901;DHT22;6518;50.930;5.344;2023-05-07T08:22:03;19.40;95.80
12901;DHT22;6518;50.930;5.344;2023-05-07T08:24:31;19.40;95.10
12901;DHT22;6518;50.930;5.344;2023-05-07T08:26:58;19.40;94.80
12901;DHT22;6518;50.930;5.344;2023-05-07T08:29:25;19.50;94.10
12901;DHT22;6518;50.930;5.344;2023-05-07T08:31:51;19.50;93.80
12901;DHT22;6518;50.930;5.344;2023-05-07T08:34:22;19.50;93.80
12901;DHT22;6518;50.930;5.344;2023-05-07T08:36:49;19.50;93.50
12901;DHT22;6518;50.930;5.344;2023-05-07T08:39:16;19.60;93.40
12901;DHT22;6518;50.930;5.344;2023-05-07T08:41:44;19.60;93.30
12901;DHT22;6518;50.930;5.344;2023-05-07T08:44:13;19.70;93.80
12901;DHT22;6518;50.930;5.344;2023-05-07T08:46:41;19.70;93.20
12901;DHT22;6518;50.930;5.344;2023-05-07T08:49:09;19.80;93.00
12901;DHT22;6518;50.930;5.344;2023-05-07T08:51:37;19.80;93.70
12901;DHT22;6518;50.930;5.344;2023-05-07T08:54:05;19.80;93.30
12901;DHT22;6518;50.930;5.344;2023-05-07T08:56:33;19.80;93.60
12901;DHT22;6518;50.930;5.344;2023-05-07T08:59:00;19.90;93.60
12901;DHT22;6518;50.930;5.344;2023-05-07T09:01:27;20.30;93.40
12901;DHT22;6518;50.930;5.344;2023-05-07T09:03:54;20.10;92.50
12901;DHT22;6518;50.930;5.344;2023-05-07T09:06:21;20.20;91.90
12901;DHT22;6518;50.930;5.344;2023-05-07T09:08:54;20.30;91.60
12901;DHT22;6518;50.930;5.344;2023-05-07T09:11:21;20.50;89.00
12901;DHT22;6518;50.930;5.344;2023-05-07T09:13:49;20.60;89.10
12901;DHT22;6518;50.930;5.344;2023-05-07T09:16:20;20.70;87.00
12901;DHT22;6518;50.930;5.344;2023-05-07T09:18:51;20.80;87.60
12901;DHT22;6518;50.930;5.344;2023-05-07T09:21:20;20.80;87.40
12901;DHT22;6518;50.930;5.344;2023-05-07T09:23:51;20.70;84.40
12901;DHT22;6518;50.930;5.344;2023-05-07T09:26:21;20.60;85.70
12901;DHT22;6518;50.930;5.344;2023-05-07T09:28:48;20.70;86.50
12901;DHT22;6518;50.930;5.344;2023-05-07T09:31:15;20.70;86.50
12901;DHT22;6518;50.930;5.344;2023-05-07T09:33:42;20.80;85.20
12901;DHT22;6518;50.930;5.344;2023-05-07T09:36:09;20.70;84.10
12901;DHT22;6518;50.930;5.344;2023-05-07T09:38:37;20.70;85.00
12901;DHT22;6518;50.930;5.344;2023-05-07T09:41:05;20.80;85.40
12901;DHT22;6518;50.930;5.344;2023-05-07T09:43:34;20.90;85.30
12901;DHT22;6518;50.930;5.344;2023-05-07T09:46:08;20.90;86.30
12901;DHT22;6518;50.930;5.344;2023-05-07T09:48:40;21.00;86.90
12901;DHT22;6518;50.930;5.344;2023-05-07T09:51:15;20.90;86.20
12901;DHT22;6518;50.930;5.344;2023-05-07T09:53:43;21.00;86.40
12901;DHT22;6518;50.930;5.344;2023-05-07T09:56:13;20.70;83.90
12901;DHT22;6518;50.930;5.344;2023-05-07T09:58:43;21.10;82.00
12901;DHT22;6518;50.930;5.344;2023-05-07T10:01:12;21.00;82.10
12901;DHT22;6518;50.930;5.344;2023-05-07T10:03:40;21.00;82.30
12901;DHT22;6518;50.930;5.344;2023-05-07T10:06:09;21.00;81.90
12901;DHT22;6518;50.930;5.344;2023-05-07T10:08:37;21.00;81.00
12901;DHT22;6518;50.930;5.344;2023-05-07T10:11:04;20.90;81.60
12901;DHT22;6518;50.930;5.344;2023-05-07T10:13:33;20.90;83.30
12901;DHT22;6518;50.930;5.344;2023-05-07T10:16:03;20.80;82.90
12901;DHT22;6518;50.930;5.344;2023-05-07T10:18:30;20.80;82.80
12901;DHT22;6518;50.930;5.344;2023-05-07T10:21:02;20.80;83.00
12901;DHT22;6518;50.930;5.344;2023-05-07T10:23:32;20.90;83.70
12901;DHT22;6518;50.930;5.344;2023-05-07T10:26:03;20.80;82.40
12901;DHT22;6518;50.930;5.344;2023-05-07T10:28:33;20.70;82.00
12901;DHT22;6518;50.930;5.344;2023-05-07T10:31:26;20.60;83.00
12901;DHT22;6518;50.930;5.344;2023-05-07T10:33:59;20.50;84.50
12901;DHT22;6518;50.930;5.344;2023-05-07T10:36:27;20.30;85.80
12901;DHT22;6518;50.930;5.344;2023-05-07T10:38:55;20.20;86.00
12901;DHT22;6518;50.930;5.344;2023-05-07T10:41:22;20.20;86.00
12901;DHT22;6518;50.930;5.344;2023-05-07T10:43:49;20.20;86.10
12901;DHT22;6518;50.930;5.344;2023-05-07T10:46:18;20.10;86.50
12901;DHT22;6518;50.930;5.344;2023-05-07T10:49:09;20.00;87.10
12901;DHT22;6518;50.930;5.344;2023-05-07T10:51:37;20.00;88.30
12901;DHT22;6518;50.930;5.344;2023-05-07T10:54:21;20.00;89.00
12901;DHT22;6518;50.930;5.344;2023-05-07T10:56:49;19.90;88.90
12901;DHT22;6518;50.930;5.344;2023-05-07T10:59:36;19.90;89.40
12901;DHT22;6518;50.930;5.344;2023-05-07T11:02:09;19.80;89.70
12901;DHT22;6518;50.930;5.344;2023-05-07T11:04:37;19.90;90.00
12901;DHT22;6518;50.930;5.344;2023-05-07T11:07:26;19.90;90.20
12901;DHT22;6518;50.930;5.344;2023-05-07T11:10:01;19.90;90.00
12901;DHT22;6518;50.930;5.344;2023-05-07T11:12:54;19.80;90.30
12901;DHT22;6518;50.930;5.344;2023-05-07T11:15:35;19.80;90.80
12901;DHT22;6518;50.930;5.344;2023-05-07T11:18:04;19.70;91.60
12901;DHT22;6518;50.930;5.344;2023-05-07T11:20:52;19.70;92.30
12901;DHT22;6518;50.930;5.344;2023-05-07T11:23:56;19.80;93.10
12901;DHT22;6518;50.930;5.344;2023-05-07T11:26:24;19.60;94.00
12901;DHT22;6518;50.930;5.344;2023-05-07T11:28:52;19.50;94.90
12901;DHT22;6518;50.930;5.344;2023-05-07T11:31:24;19.60;96.00
12901;DHT22;6518;50.930;5.344;2023-05-07T11:33:53;19.50;96.10
12901;DHT22;6518;50.930;5.344;2023-05-07T11:36:22;19.50;94.70
12901;DHT22;6518;50.930;5.344;2023-05-07T11:38:49;19.40;94.90
12901;DHT22;6518;50.930;5.344;2023-05-07T11:41:16;19.20;96.80
12901;DHT22;6518;50.930;5.344;2023-05-07T11:43:58;19.30;98.30
12901;DHT22;6518;50.930;5.344;2023-05-07T11:46:27;19.30;98.50
12901;DHT22;6518;50.930;5.344;2023-05-07T11:48:56;19.20;99.90
12901;DHT22;6518;50.930;5.344;2023-05-07T11:51:24;19.20;99.90
12901;DHT22;6518;50.930;5.344;2023-05-07T11:53:53;19.10;98.30
12901;DHT22;6518;50.930;5.344;2023-05-07T11:56:20;19.10;99.50
12901;DHT22;6518;50.930;5.344;2023-05-07T11:58:47;19.10;99.90
12901;DHT22;6518;50.930;5.344;2023-05-07T12:01:15;19.10;99.90
12901;DHT22;6518;50.930;5.344;2023-05-07T12:03:44;19.10;99.90
12901;DHT22;6518;50.930;5.344;2023-05-07T12:06:14;19.00;99.90
12901;DHT22;6518;50.930;5.344;2023-05-07T12:08:42;19.00;99.90
12901;DHT22;6518;50.930;5.344;2023-05-07T12:11:13;19.10;99.90
12901;DHT22;6518;50.930;5.344;2023-05-07T12:13:41;19.00;99.90
12901;DHT22;6518;50.930;5.344;2023-05-07T12:16:09;19.00;99.90
12901;DHT22;6518;50.930;5.344;2023-05-07T12:18:37;19.00;99.90
12901;DHT22;6518;50.930;5.344;2023-05-07T12:21:05;19.00;99.90
12901;DHT22;6518;50.930;5.344;2023-05-07T12:23:35;18.90;99.90
12901;DHT22;6518;50.930;5.344;2023-05-07T12:26:03;18.80;99.90
12901;DHT22;6518;50.930;5.344;2023-05-07T12:28:31;18.90;99.90
12901;DHT22;6518;50.930;5.344;2023-05-07T12:31:02;18.90;99.90
12901;DHT22;6518;50.930;5.344;2023-05-07T12:33:29;19.10;99.90
12901;DHT22;6518;50.930;5.344;2023-05-07T12:36:00;19.20;99.90
12901;DHT22;6518;50.930;5.344;2023-05-07T12:38:36;19.30;99.90
12901;DHT22;6518;50.930;5.344;2023-05-07T12:41:04;19.30;99.90
12901;DHT22;6518;50.930;5.344;2023-05-07T12:43:31;19.40;99.90
12901;DHT22;6518;50.930;5.344;2023-05-07T12:46:00;19.40;99.90
12901;DHT22;6518;50.930;5.344;2023-05-07T12:48:27;19.40;99.90
12901;DHT22;6518;50.930;5.344;2023-05-07T12:50:55;19.50;99.90
12901;DHT22;6518;50.930;5.344;2023-05-07T12:53:23;19.40;99.90
12901;DHT22;6518;50.930;5.344;2023-05-07T12:55:52;19.50;99.90
12901;DHT22;6518;50.930;5.344;2023-05-07T12:58:21;19.50;99.90
12901;DHT22;6518;50.930;5.344;2023-05-07T13:00:49;19.60;99.90
12901;DHT22;6518;50.930;5.344;2023-05-07T13:03:24;19.60;99.90
12901;DHT22;6518;50.930;5.344;2023-05-07T13:05:51;19.60;99.90
12901;DHT22;6518;50.930;5.344;2023-05-07T13:08:29;19.60;99.90
12901;DHT22;6518;50.930;5.344;2023-05-07T13:10:59;19.70;99.90
12901;DHT22;6518;50.930;5.344;2023-05-07T13:13:29;19.60;99.90
12901;DHT22;6518;50.930;5.344;2023-05-07T13:15:55;19.50;99.90
12901;DHT22;6518;50.930;5.344;2023-05-07T13:18:24;19.40;99.90
12901;DHT22;6518;50.930;5.344;2023-05-07T13:20:51;19.40;99.90
12901;DHT22;6518;50.930;5.344;2023-05-07T13:23:18;19.30;99.90
12901;DHT22;6518;50.930;5.344;2023-05-07T13:25:45;19.30;99.90
12901;DHT22;6518;50.930;5.344;2023-05-07T13:28:13;19.40;99.90
12901;DHT22;6518;50.930;5.344;2023-05-07T13:30:40;19.40;99.90
12901;DHT22;6518;50.930;5.344;2023-05-07T13:33:07;19.60;99.70
12901;DHT22;6518;50.930;5.344;2023-05-07T13:35:34;19.60;98.40
12901;DHT22;6518;50.930;5.344;2023-05-07T13:38:01;19.70;96.80
12901;DHT22;6518;50.930;5.344;2023-05-07T13:40:28;19.80;96.40
12901;DHT22;6518;50.930;5.344;2023-05-07T13:42:57;19.80;96.90
12901;DHT22;6518;50.930;5.344;2023-05-07T13:45:26;19.80;97.40
12901;DHT22;6518;50.930;5.344;2023-05-07T13:47:55;19.80;97.10
12901;DHT22;6518;50.930;5.344;2023-05-07T13:50:23;19.90;97.30
12901;DHT22;6518;50.930;5.344;2023-05-07T13:52:50;19.90;97.70
12901;DHT22;6518;50.930;5.344;2023-05-07T13:55:17;19.90;98.30
12901;DHT22;6518;50.930;5.344;2023-05-07T13:57:44;20.10;99.30
12901;DHT22;6518;50.930;5.344;2023-05-07T14:00:12;20.20;98.70
12901;DHT22;6518;50.930;5.344;2023-05-07T14:02:40;20.30;97.50
12901;DHT22;6518;50.930;5.344;2023-05-07T14:05:08;20.20;97.30
12901;DHT22;6518;50.930;5.344;2023-05-07T14:07:35;20.20;95.90
12901;DHT22;6518;50.930;5.344;2023-05-07T14:10:03;20.20;95.80
12901;DHT22;6518;50.930;5.344;2023-05-07T14:12:31;20.20;96.20
12901;DHT22;6518;50.930;5.344;2023-05-07T14:14:58;20.20;96.60
12901;DHT22;6518;50.930;5.344;2023-05-07T14:17:25;20.20;96.60
12901;DHT22;6518;50.930;5.344;2023-05-07T14:19:54;20.20;96.00
12901;DHT22;6518;50.930;5.344;2023-05-07T14:22:21;20.10;96.20
12901;DHT22;6518;50.930;5.344;2023-05-07T14:24:48;20.00;95.70
12901;DHT22;6518;50.930;5.344;2023-05-07T14:27:15;20.00;95.80
12901;DHT22;6518;50.930;5.344;2023-05-07T14:29:42;20.10;94.60
12901;DHT22;6518;50.930;5.344;2023-05-07T14:32:11;20.10;95.10
12901;DHT22;6518;50.930;5.344;2023-05-07T14:34:38;20.00;95.90
12901;DHT22;6518;50.930;5.344;2023-05-07T14:37:06;20.00;96.70
12901;DHT22;6518;50.930;5.344;2023-05-07T14:39:33;20.00;97.40
12901;DHT22;6518;50.930;5.344;2023-05-07T14:42:00;20.00;97.40
12901;DHT22;6518;50.930;5.344;2023-05-07T14:44:26;20.10;96.80
12901;DHT22;6518;50.930;5.344;2023-05-07T14:46:53;20.00;95.80
12901;DHT22;6518;50.930;5.344;2023-05-07T14:49:20;20.00;95.00
12901;DHT22;6518;50.930;5.344;2023-05-07T14:51:47;19.90;94.10
12901;DHT22;6518;50.930;5.344;2023-05-07T14:54:16;19.90;93.90
12901;DHT22;6518;50.930;5.344;2023-05-07T14:56:42;19.90;93.50
12901;DHT22;6518;50.930;5.344;2023-05-07T14:59:09;19.90;95.00
12901;DHT22;6518;50.930;5.344;2023-05-07T15:01:37;19.80;95.80
12901;DHT22;6518;50.930;5.344;2023-05-07T15:04:06;19.70;96.40
12901;DHT22;6518;50.930;5.344;2023-05-07T15:06:32;19.70;97.10
12901;DHT22;6518;50.930;5.344;2023-05-07T15:08:59;19.70;97.10
12901;DHT22;6518;50.930;5.344;2023-05-07T15:11:28;19.80;97.40
12901;DHT22;6518;50.930;5.344;2023-05-07T15:13:55;19.80;97.10
12901;DHT22;6518;50.930;5.344;2023-05-07T15:16:22;19.90;97.10
12901;DHT22;6518;50.930;5.344;2023-05-07T15:18:49;20.00;97.10
12901;DHT22;6518;50.930;5.344;2023-05-07T15:21:16;20.00;96.40
12901;DHT22;6518;50.930;5.344;2023-05-07T15:23:43;20.00;96.20
12901;DHT22;6518;50.930;5.344;2023-05-07T15:26:10;20.20;96.10
12901;DHT22;6518;50.930;5.344;2023-05-07T15:28:39;20.10;95.70
12901;DHT22;6518;50.930;5.344;2023-05-07T15:31:06;19.90;96.00
12901;DHT22;6518;50.930;5.344;2023-05-07T15:33:32;20.00;95.90
12901;DHT22;6518;50.930;5.344;2023-05-07T15:35:59;20.00;95.50
12901;DHT22;6518;50.930;5.344;2023-05-07T15:38:28;20.10;95.30
12901;DHT22;6518;50.930;5.344;2023-05-07T15:40:55;20.30;94.60
12901;DHT22;6518;50.930;5.344;2023-05-07T15:43:22;20.20;93.00
12901;DHT22;6518;50.930;5.344;2023-05-07T15:45:51;20.20;92.70
12901;DHT22;6518;50.930;5.344;2023-05-07T15:48:18;20.20;93.30
12901;DHT22;6518;50.930;5.344;2023-05-07T15:50:45;20.20;93.10